sensor_id;sensor_type;location;lat;lon;timestamp;pressure;altitude;pressure_sealevel;temperature;humidity
70730;BME280;58315;53.336;55.932;2023-04-30T00:01:50;100000.44;;;16.88;41.05
70730;BME280;58315;53.336;55.932;2023-04-30T00:04:17;100000.13;;;16.92;41.14
70730;BME280;58315;53.336;55.932;2023-04-30T00:06:43;99998.47;;;16.91;41.17
70730;BME280;58315;53.336;55.932;2023-04-30T00:09:09;100001.78;;;16.93;41.21
70730;BME280;58315;53.336;55.932;2023-04-30T00:11:35;100001.13;;;16.91;41.31
70730;BME280;58315;53.336;55.932;2023-04-30T00:14:01;100004.44;;;16.93;41.16
70730;BME280;58315;53.336;55.932;2023-04-30T00:16:27;100003.13;;;16.88;41.11
70730;BME280;58315;53.336;55.932;2023-04-30T00:18:53;100007.47;;;16.81;41.00
70730;BME280;58315;53.336;55.932;2023-04-30T00:21:19;100013.50;;;16.75;41.02
70730;BME280;58315;53.336;55.932;2023-04-30T00:23:45;100017.47;;;16.71;41.25
70730;BME280;58315;53.336;55.932;2023-04-30T00:26:11;100016.13;;;16.59;41.24
70730;BME280;58315;53.336;55.932;2023-04-30T00:28:38;100018.47;;;16.54;41.35
70730;BME280;58315;53.336;55.932;2023-04-30T00:31:04;100007.63;;;16.47;41.54
70730;BME280;58315;53.336;55.932;2023-04-30T00:33:34;100016.78;;;16.45;41.80
70730;BME280;58315;53.336;55.932;2023-04-30T00:36:00;100013.47;;;16.43;41.86
70730;BME280;58315;53.336;55.932;2023-04-30T00:38:27;100022.28;;;16.35;41.91
70730;BME280;58315;53.336;55.932;2023-04-30T00:40:53;100023.78;;;16.37;42.06
70730;BME280;58315;53.336;55.932;2023-04-30T00:43:19;100021.94;;;16.38;42.25
70730;BME280;58315;53.336;55.932;2023-04-30T00:45:45;100019.94;;;16.40;42.05
70730;BME280;58315;53.336;55.932;2023-04-30T00:48:11;100012.78;;;16.40;42.01
70730;BME280;58315;53.336;55.932;2023-04-30T00:50:38;100016.13;;;16.43;42.21
70730;BME280;58315;53.336;55.932;2023-04-30T00:53:06;100013.78;;;16.39;42.11
70730;BME280;58315;53.336;55.932;2023-04-30T00:55:32;100019.94;;;16.40;42.18
70730;BME280;58315;53.336;55.932;2023-04-30T00:57:59;100017.09;;;16.42;42.26
70730;BME280;58315;53.336;55.932;2023-04-30T01:00:26;100016.59;;;16.38;42.12
70730;BME280;58315;53.336;55.932;2023-04-30T01:02:52;100022.78;;;16.38;42.28
70730;BME280;58315;53.336;55.932;2023-04-30T01:05:18;100024.13;;;16.43;42.46
70730;BME280;58315;53.336;55.932;2023-04-30T01:07:44;100030.28;;;16.43;42.24
70730;BME280;58315;53.336;55.932;2023-04-30T01:10:12;100038.28;;;16.51;42.30
70730;BME280;58315;53.336;55.932;2023-04-30T01:15:27;100028.78;;;16.73;41.97
70730;BME280;58315;53.336;55.932;2023-04-30T01:18:08;100031.66;;;16.80;41.65
70730;BME280;58315;53.336;55.932;2023-04-30T01:20:43;100035.97;;;16.81;41.66
70730;BME280;58315;53.336;55.932;2023-04-30T01:23:26;100037.81;;;16.88;41.65
70730;BME280;58315;53.336;55.932;2023-04-30T01:26:10;100039.50;;;16.90;41.54
70730;BME280;58315;53.336;55.932;2023-04-30T01:28:41;100034.16;;;16.81;41.54
70730;BME280;58315;53.336;55.932;2023-04-30T01:31:17;100038.31;;;16.92;41.39
70730;BME280;58315;53.336;55.932;2023-04-30T01:33:43;100044.00;;;16.81;41.80
70730;BME280;58315;53.336;55.932;2023-04-30T01:36:20;100051.16;;;16.88;41.64
70730;BME280;58315;53.336;55.932;2023-04-30T01:39:08;100050.16;;;16.98;41.46
70730;BME280;58315;53.336;55.932;2023-04-30T01:41:49;100058.19;;;16.98;41.47
70730;BME280;58315;53.336;55.932;2023-04-30T01:47:04;100055.47;;;17.14;41.23
70730;BME280;58315;53.336;55.932;2023-04-30T01:52:44;100059.97;;;17.22;40.90
70730;BME280;58315;53.336;55.932;2023-04-30T01:55:23;100057.63;;;17.27;40.65
70730;BME280;58315;53.336;55.932;2023-04-30T01:57:57;100058.94;;;17.39;40.46
70730;BME280;58315;53.336;55.932;2023-04-30T02:00:25;100056.75;;;17.43;40.17
70730;BME280;58315;53.336;55.932;2023-04-30T02:02:53;100063.06;;;17.50;40.12
70730;BME280;58315;53.336;55.932;2023-04-30T02:05:20;100063.72;;;17.60;40.00
70730;BME280;58315;53.336;55.932;2023-04-30T02:07:48;100075.53;;;17.74;39.55
70730;BME280;58315;53.336;55.932;2023-04-30T02:10:16;100072.50;;;17.85;39.67
70730;BME280;58315;53.336;55.932;2023-04-30T02:12:45;100077.66;;;17.87;39.65
70730;BME280;58315;53.336;55.932;2023-04-30T02:15:13;100077.81;;;17.93;39.54
70730;BME280;58315;53.336;55.932;2023-04-30T02:17:41;100082.00;;;17.96;39.58
70730;BME280;58315;53.336;55.932;2023-04-30T02:20:08;100098.16;;;18.02;39.64
70730;BME280;58315;53.336;55.932;2023-04-30T02:22:35;100090.44;;;18.07;39.45
70730;BME280;58315;53.336;55.932;2023-04-30T02:25:01;100096.91;;;18.21;39.40
70730;BME280;58315;53.336;55.932;2023-04-30T02:27:31;100102.09;;;18.46;39.20
70730;BME280;58315;53.336;55.932;2023-04-30T02:29:58;100097.75;;;18.45;39.20
70730;BME280;58315;53.336;55.932;2023-04-30T02:32:25;100098.53;;;18.53;39.27
70730;BME280;58315;53.336;55.932;2023-04-30T02:34:51;100094.25;;;18.67;39.08
70730;BME280;58315;53.336;55.932;2023-04-30T02:37:17;100095.16;;;18.83;38.57
70730;BME280;58315;53.336;55.932;2023-04-30T02:39:43;100093.00;;;19.01;38.17
70730;BME280;58315;53.336;55.932;2023-04-30T02:42:09;100096.28;;;19.11;37.93
70730;BME280;58315;53.336;55.932;2023-04-30T02:44:35;100094.28;;;19.28;37.71
70730;BME280;58315;53.336;55.932;2023-04-30T02:47:03;100099.34;;;19.38;37.55
70730;BME280;58315;53.336;55.932;2023-04-30T02:49:31;100101.63;;;19.49;37.25
70730;BME280;58315;53.336;55.932;2023-04-30T02:51:57;100099.56;;;19.51;37.25
70730;BME280;58315;53.336;55.932;2023-04-30T02:54:24;100093.94;;;19.61;37.15
70730;BME280;58315;53.336;55.932;2023-04-30T02:56:50;100091.28;;;19.75;37.27
70730;BME280;58315;53.336;55.932;2023-04-30T02:59:16;100100.06;;;19.84;36.92
70730;BME280;58315;53.336;55.932;2023-04-30T03:01:42;100100.34;;;20.04;36.64
70730;BME280;58315;53.336;55.932;2023-04-30T03:04:08;100096.78;;;20.18;36.21
70730;BME280;58315;53.336;55.932;2023-04-30T03:06:34;100093.66;;;20.36;36.02
70730;BME280;58315;53.336;55.932;2023-04-30T03:09:00;100094.97;;;20.55;35.89
70730;BME280;58315;53.336;55.932;2023-04-30T03:11:26;100089.09;;;20.66;35.50
70730;BME280;58315;53.336;55.932;2023-04-30T03:13:52;100087.59;;;20.85;35.52
70730;BME280;58315;53.336;55.932;2023-04-30T03:16:20;100083.41;;;21.04;34.83
70730;BME280;58315;53.336;55.932;2023-04-30T03:18:48;100075.03;;;21.14;34.29
70730;BME280;58315;53.336;55.932;2023-04-30T03:21:14;100080.28;;;21.50;34.54
70730;BME280;58315;53.336;55.932;2023-04-30T03:23:41;100083.56;;;22.35;33.97
70730;BME280;58315;53.336;55.932;2023-04-30T03:26:07;100087.34;;;23.53;33.15
70730;BME280;58315;53.336;55.932;2023-04-30T03:28:34;100085.66;;;24.24;31.85
70730;BME280;58315;53.336;55.932;2023-04-30T03:31:01;100089.06;;;24.58;31.41
70730;BME280;58315;53.336;55.932;2023-04-30T03:33:31;100089.34;;;24.74;30.18
70730;BME280;58315;53.336;55.932;2023-04-30T03:35:57;100089.09;;;25.08;30.59
70730;BME280;58315;53.336;55.932;2023-04-30T03:38:24;100092.41;;;25.96;29.18
70730;BME280;58315;53.336;55.932;2023-04-30T03:40:51;100095.03;;;26.93;28.37
70730;BME280;58315;53.336;55.932;2023-04-30T03:43:17;100095.28;;;27.98;28.30
70730;BME280;58315;53.336;55.932;2023-04-30T03:45:43;100095.53;;;28.99;27.46
70730;BME280;58315;53.336;55.932;2023-04-30T03:48:09;100096.81;;;29.86;25.95
70730;BME280;58315;53.336;55.932;2023-04-30T03:50:35;100095.81;;;30.63;24.97
70730;BME280;58315;53.336;55.932;2023-04-30T03:53:01;100100.59;;;31.10;23.09
70730;BME280;58315;53.336;55.932;2023-04-30T03:55:28;100091.88;;;31.50;23.61
70730;BME280;58315;53.336;55.932;2023-04-30T03:57:54;100091.88;;;32.03;22.62
70730;BME280;58315;53.336;55.932;2023-04-30T04:00:20;100081.38;;;32.47;22.13
70730;BME280;58315;53.336;55.932;2023-04-30T04:02:50;100087.97;;;32.92;21.79
70730;BME280;58315;53.336;55.932;2023-04-30T04:05:16;100081.94;;;33.16;21.72
70730;BME280;58315;53.336;55.932;2023-04-30T04:07:43;100084.59;;;33.72;21.24
70730;BME280;58315;53.336;55.932;2023-04-30T04:10:09;100081.69;;;34.13;20.55
70730;BME280;58315;53.336;55.932;2023-04-30T04:12:36;100083.53;;;34.22;20.37
70730;BME280;58315;53.336;55.932;2023-04-30T04:15:02;100085.31;;;34.47;20.98
70730;BME280;58315;53.336;55.932;2023-04-30T04:17:31;100084.75;;;34.90;19.97
70730;BME280;58315;53.336;55.932;2023-04-30T04:19:57;100091.91;;;34.86;19.77
70730;BME280;58315;53.336;55.932;2023-04-30T04:22:24;100084.00;;;35.13;19.56
70730;BME280;58315;53.336;55.932;2023-04-30T04:24:51;100090.59;;;35.41;19.45
70730;BME280;58315;53.336;55.932;2023-04-30T04:27:20;100099.00;;;35.55;18.93
70730;BME280;58315;53.336;55.932;2023-04-30T04:29:46;100089.94;;;35.97;18.90
70730;BME280;58315;53.336;55.932;2023-04-30T04:32:13;100089.41;;;35.77;18.07
70730;BME280;58315;53.336;55.932;2023-04-30T04:34:42;100093.16;;;35.62;19.51
70730;BME280;58315;53.336;55.932;2023-04-30T04:37:09;100091.72;;;35.88;18.83
70730;BME280;58315;53.336;55.932;2023-04-30T04:39:36;100095.66;;;36.44;19.46
70730;BME280;58315;53.336;55.932;2023-04-30T04:42:04;100087.69;;;37.13;18.32
70730;BME280;58315;53.336;55.932;2023-04-30T04:44:31;100086.31;;;37.43;17.67
70730;BME280;58315;53.336;55.932;2023-04-30T04:46:58;100091.53;;;37.45;17.50
70730;BME280;58315;53.336;55.932;2023-04-30T04:49:25;100086.41;;;37.38;17.79
70730;BME280;58315;53.336;55.932;2023-04-30T04:51:52;100091.72;;;37.62;17.58
70730;BME280;58315;53.336;55.932;2023-04-30T04:54:19;100085.28;;;37.80;17.37
70730;BME280;58315;53.336;55.932;2023-04-30T04:56:46;100089.44;;;38.19;16.77
70730;BME280;58315;53.336;55.932;2023-04-30T04:59:12;100077.53;;;38.46;16.73
70730;BME280;58315;53.336;55.932;2023-04-30T05:01:38;100083.13;;;38.55;16.52
70730;BME280;58315;53.336;55.932;2023-04-30T05:04:07;100082.38;;;38.63;16.39
70730;BME280;58315;53.336;55.932;2023-04-30T05:06:34;100076.34;;;38.61;16.54
70730;BME280;58315;53.336;55.932;2023-04-30T05:09:01;100080.38;;;38.77;16.59
70730;BME280;58315;53.336;55.932;2023-04-30T05:11:27;100085.25;;;39.03;16.02
70730;BME280;58315;53.336;55.932;2023-04-30T05:13:53;100080.94;;;39.19;15.63
70730;BME280;58315;53.336;55.932;2023-04-30T05:16:20;100088.28;;;38.93;15.86
70730;BME280;58315;53.336;55.932;2023-04-30T05:18:46;100080.41;;;39.31;16.04
70730;BME280;58315;53.336;55.932;2023-04-30T05:21:12;100078.66;;;39.44;15.54
70730;BME280;58315;53.336;55.932;2023-04-30T05:23:38;100078.13;;;39.33;15.37
70730;BME280;58315;53.336;55.932;2023-04-30T05:26:04;100071.44;;;39.34;15.47
70730;BME280;58315;53.336;55.932;2023-04-30T05:28:30;100073.41;;;39.73;15.43
70730;BME280;58315;53.336;55.932;2023-04-30T05:30:56;100068.41;;;39.44;15.31
70730;BME280;58315;53.336;55.932;2023-04-30T05:33:22;100066.66;;;39.17;15.52
70730;BME280;58315;53.336;55.932;2023-04-30T05:35:48;100067.59;;;38.81;15.74
70730;BME280;58315;53.336;55.932;2023-04-30T05:38:14;100066.66;;;38.72;15.94
70730;BME280;58315;53.336;55.932;2023-04-30T05:40:40;100057.50;;;39.08;15.84
70730;BME280;58315;53.336;55.932;2023-04-30T05:43:06;100055.41;;;38.82;16.06
70730;BME280;58315;53.336;55.932;2023-04-30T05:45:33;100054.28;;;38.83;15.68
70730;BME280;58315;53.336;55.932;2023-04-30T05:47:59;100057.38;;;38.68;16.06
70730;BME280;58315;53.336;55.932;2023-04-30T05:50:26;100052.81;;;38.41;15.67
70730;BME280;58315;53.336;55.932;2023-04-30T05:52:52;100056.09;;;38.66;15.83
70730;BME280;58315;53.336;55.932;2023-04-30T05:55:18;100049.72;;;38.65;16.01
70730;BME280;58315;53.336;55.932;2023-04-30T05:57:45;100051.38;;;38.66;15.59
70730;BME280;58315;53.336;55.932;2023-04-30T06:00:12;100053.41;;;38.52;15.71
70730;BME280;58315;53.336;55.932;2023-04-30T06:02:39;100053.06;;;38.53;16.01
70730;BME280;58315;53.336;55.932;2023-04-30T06:05:09;100055.72;;;38.58;15.52
70730;BME280;58315;53.336;55.932;2023-04-30T06:07:35;100050.22;;;38.22;16.40
70730;BME280;58315;53.336;55.932;2023-04-30T06:10:02;100045.72;;;38.12;16.43
70730;BME280;58315;53.336;55.932;2023-04-30T06:12:32;100055.72;;;37.45;16.15
70730;BME280;58315;53.336;55.932;2023-04-30T06:14:59;100046.00;;;36.54;17.01
70730;BME280;58315;53.336;55.932;2023-04-30T06:17:25;100048.91;;;35.82;17.58
70730;BME280;58315;53.336;55.932;2023-04-30T06:19:51;100042.41;;;34.67;18.13
70730;BME280;58315;53.336;55.932;2023-04-30T06:22:17;100042.84;;;33.90;18.91
70730;BME280;58315;53.336;55.932;2023-04-30T06:24:43;100041.97;;;33.15;19.80
70730;BME280;58315;53.336;55.932;2023-04-30T06:27:10;100036.81;;;32.67;20.21
70730;BME280;58315;53.336;55.932;2023-04-30T06:29:36;100029.94;;;32.54;20.20
70730;BME280;58315;53.336;55.932;2023-04-30T06:32:02;100026.91;;;32.30;20.22
70730;BME280;58315;53.336;55.932;2023-04-30T06:34:28;100032.56;;;31.93;20.78
70730;BME280;58315;53.336;55.932;2023-04-30T06:36:55;100025.84;;;31.58;21.12
70730;BME280;58315;53.336;55.932;2023-04-30T06:39:21;100030.13;;;31.39;21.44
70730;BME280;58315;53.336;55.932;2023-04-30T06:41:47;100025.59;;;31.17;21.42
70730;BME280;58315;53.336;55.932;2023-04-30T06:44:14;100022.84;;;31.12;21.46
70730;BME280;58315;53.336;55.932;2023-04-30T06:46:41;100012.38;;;30.99;21.46
70730;BME280;58315;53.336;55.932;2023-04-30T06:49:07;100012.22;;;30.79;21.67
70730;BME280;58315;53.336;55.932;2023-04-30T06:51:33;100008.69;;;30.78;21.73
70730;BME280;58315;53.336;55.932;2023-04-30T06:53:59;100009.78;;;30.77;21.94
70730;BME280;58315;53.336;55.932;2023-04-30T06:56:25;100015.69;;;30.69;21.98
70730;BME280;58315;53.336;55.932;2023-04-30T06:58:51;100009.31;;;30.58;21.95
70730;BME280;58315;53.336;55.932;2023-04-30T07:01:17;100003.66;;;30.33;22.15
70730;BME280;58315;53.336;55.932;2023-04-30T07:03:44;100011.94;;;30.43;22.54
70730;BME280;58315;53.336;55.932;2023-04-30T07:06:10;100009.31;;;30.58;21.90
70730;BME280;58315;53.336;55.932;2023-04-30T07:08:36;100007.75;;;30.67;22.30
70730;BME280;58315;53.336;55.932;2023-04-30T07:11:03;100007.72;;;30.62;21.95
70730;BME280;58315;53.336;55.932;2023-04-30T07:13:29;100015.94;;;30.67;22.38
70730;BME280;58315;53.336;55.932;2023-04-30T07:15:55;99993.00;;;30.63;22.08
70730;BME280;58315;53.336;55.932;2023-04-30T07:18:21;100002.69;;;30.49;22.41
70730;BME280;58315;53.336;55.932;2023-04-30T07:20:47;99997.25;;;30.49;22.44
70730;BME280;58315;53.336;55.932;2023-04-30T07:23:13;99996.94;;;30.45;22.54
70730;BME280;58315;53.336;55.932;2023-04-30T07:25:39;99993.97;;;30.47;22.35
70730;BME280;58315;53.336;55.932;2023-04-30T07:28:05;99988.34;;;30.59;21.99
70730;BME280;58315;53.336;55.932;2023-04-30T07:30:31;99982.31;;;30.57;21.96
70730;BME280;58315;53.336;55.932;2023-04-30T07:32:58;99986.34;;;30.49;21.79
70730;BME280;58315;53.336;55.932;2023-04-30T07:35:24;99988.44;;;30.42;22.43
70730;BME280;58315;53.336;55.932;2023-04-30T07:37:50;99984.47;;;30.55;22.22
70730;BME280;58315;53.336;55.932;2023-04-30T07:40:16;99974.81;;;30.42;22.03
70730;BME280;58315;53.336;55.932;2023-04-30T07:42:42;99978.72;;;30.51;22.10
70730;BME280;58315;53.336;55.932;2023-04-30T07:45:10;99973.88;;;30.58;22.21
70730;BME280;58315;53.336;55.932;2023-04-30T07:47:38;99966.59;;;30.69;21.90
70730;BME280;58315;53.336;55.932;2023-04-30T07:50:05;99969.97;;;30.76;22.01
70730;BME280;58315;53.336;55.932;2023-04-30T07:52:31;99972.41;;;30.78;22.23
70730;BME280;58315;53.336;55.932;2023-04-30T07:54:57;99968.13;;;30.87;22.29
70730;BME280;58315;53.336;55.932;2023-04-30T07:57:23;99965.72;;;31.01;21.58
70730;BME280;58315;53.336;55.932;2023-04-30T07:59:55;99974.09;;;30.84;21.52
70730;BME280;58315;53.336;55.932;2023-04-30T08:02:21;99959.75;;;30.66;21.68
70730;BME280;58315;53.336;55.932;2023-04-30T08:04:47;99961.88;;;30.59;21.73
70730;BME280;58315;53.336;55.932;2023-04-30T08:07:13;99951.59;;;30.71;21.31
70730;BME280;58315;53.336;55.932;2023-04-30T08:09:42;99959.03;;;30.76;21.13
70730;BME280;58315;53.336;55.932;2023-04-30T08:12:09;99948.38;;;30.74;21.56
70730;BME280;58315;53.336;55.932;2023-04-30T08:14:35;99949.72;;;30.72;21.57
70730;BME280;58315;53.336;55.932;2023-04-30T08:17:01;99955.50;;;30.76;21.23
70730;BME280;58315;53.336;55.932;2023-04-30T08:19:28;99946.63;;;30.63;21.43
70730;BME280;58315;53.336;55.932;2023-04-30T08:21:54;99947.34;;;30.86;21.26
70730;BME280;58315;53.336;55.932;2023-04-30T08:24:21;99939.00;;;30.97;20.89
70730;BME280;58315;53.336;55.932;2023-04-30T08:26:47;99934.94;;;31.05;20.89
70730;BME280;58315;53.336;55.932;2023-04-30T08:29:13;99941.66;;;30.87;21.15
70730;BME280;58315;53.336;55.932;2023-04-30T08:31:39;99938.63;;;30.84;21.21
70730;BME280;58315;53.336;55.932;2023-04-30T08:34:06;99918.69;;;30.78;20.91
70730;BME280;58315;53.336;55.932;2023-04-30T08:36:32;99922.78;;;30.76;21.03
70730;BME280;58315;53.336;55.932;2023-04-30T08:38:58;99917.66;;;30.89;21.35
70730;BME280;58315;53.336;55.932;2023-04-30T08:41:25;99919.31;;;30.95;21.67
70730;BME280;58315;53.336;55.932;2023-04-30T08:43:55;99921.06;;;31.17;20.92
70730;BME280;58315;53.336;55.932;2023-04-30T08:46:25;99922.13;;;31.11;21.01
70730;BME280;58315;53.336;55.932;2023-04-30T08:48:53;99911.72;;;30.97;21.48
70730;BME280;58315;53.336;55.932;2023-04-30T08:51:20;99901.03;;;30.91;21.29
70730;BME280;58315;53.336;55.932;2023-04-30T08:53:48;99894.31;;;30.66;21.14
70730;BME280;58315;53.336;55.932;2023-04-30T08:56:15;99911.72;;;30.60;21.21
70730;BME280;58315;53.336;55.932;2023-04-30T08:58:41;99902.72;;;30.60;21.58
70730;BME280;58315;53.336;55.932;2023-04-30T09:01:09;99897.84;;;30.62;21.77
70730;BME280;58315;53.336;55.932;2023-04-30T09:03:35;99884.50;;;30.65;21.74
70730;BME280;58315;53.336;55.932;2023-04-30T09:06:02;99901.41;;;30.67;21.56
70730;BME280;58315;53.336;55.932;2023-04-30T09:08:47;99888.97;;;30.82;21.60
70730;BME280;58315;53.336;55.932;2023-04-30T09:13:50;99897.78;;;30.57;21.86
70730;BME280;58315;53.336;55.932;2023-04-30T09:16:20;99909.25;;;30.54;21.67
70730;BME280;58315;53.336;55.932;2023-04-30T09:18:47;99890.91;;;30.49;21.84
70730;BME280;58315;53.336;55.932;2023-04-30T09:21:13;99885.19;;;30.13;22.51
70730;BME280;58315;53.336;55.932;2023-04-30T09:23:57;99901.59;;;30.56;21.84
70730;BME280;58315;53.336;55.932;2023-04-30T09:28:57;99893.41;;;30.56;21.57
70730;BME280;58315;53.336;55.932;2023-04-30T09:31:24;99892.97;;;30.69;22.16
70730;BME280;58315;53.336;55.932;2023-04-30T09:33:51;99893.66;;;30.91;21.67
70730;BME280;58315;53.336;55.932;2023-04-30T09:36:21;99886.75;;;30.79;21.67
70730;BME280;58315;53.336;55.932;2023-04-30T09:38:47;99882.81;;;30.59;21.68
70730;BME280;58315;53.336;55.932;2023-04-30T09:41:27;99889.97;;;30.70;21.72
70730;BME280;58315;53.336;55.932;2023-04-30T09:43:54;99892.09;;;30.58;21.84
70730;BME280;58315;53.336;55.932;2023-04-30T09:46:21;99871.94;;;30.64;21.32
70730;BME280;58315;53.336;55.932;2023-04-30T09:48:59;99876.41;;;30.76;21.98
70730;BME280;58315;53.336;55.932;2023-04-30T09:51:26;99871.91;;;30.59;22.08
70730;BME280;58315;53.336;55.932;2023-04-30T09:53:53;99871.41;;;30.67;21.60
70730;BME280;58315;53.336;55.932;2023-04-30T09:56:21;99869.75;;;30.66;21.42
70730;BME280;58315;53.336;55.932;2023-04-30T09:58:50;99869.53;;;30.68;21.91
70730;BME280;58315;53.336;55.932;2023-04-30T10:01:18;99866.81;;;30.73;21.59
70730;BME280;58315;53.336;55.932;2023-04-30T10:03:44;99867.03;;;30.66;21.49
70730;BME280;58315;53.336;55.932;2023-04-30T10:06:12;99860.25;;;30.69;21.52
70730;BME280;58315;53.336;55.932;2023-04-30T10:08:39;99855.00;;;30.57;21.46
70730;BME280;58315;53.336;55.932;2023-04-30T10:11:08;99854.44;;;30.55;21.97
70730;BME280;58315;53.336;55.932;2023-04-30T10:14:12;99856.34;;;30.55;21.64
70730;BME280;58315;53.336;55.932;2023-04-30T10:16:50;99846.81;;;30.57;21.80
70730;BME280;58315;53.336;55.932;2023-04-30T10:21:44;99854.88;;;30.79;21.74
70730;BME280;58315;53.336;55.932;2023-04-30T10:24:15;99848.06;;;30.82;21.55
70730;BME280;58315;53.336;55.932;2023-04-30T10:26:45;99848.34;;;30.85;21.74
70730;BME280;58315;53.336;55.932;2023-04-30T10:29:13;99863.06;;;30.79;22.02
70730;BME280;58315;53.336;55.932;2023-04-30T10:31:42;99858.38;;;30.74;21.40
70730;BME280;58315;53.336;55.932;2023-04-30T10:36:42;99855.41;;;30.76;21.24
70730;BME280;58315;53.336;55.932;2023-04-30T10:39:10;99853.16;;;30.73;22.06
70730;BME280;58315;53.336;55.932;2023-04-30T10:41:38;99848.25;;;30.70;21.78
70730;BME280;58315;53.336;55.932;2023-04-30T10:44:03;99838.66;;;30.67;21.38
70730;BME280;58315;53.336;55.932;2023-04-30T10:46:35;99845.78;;;30.68;22.16
70730;BME280;58315;53.336;55.932;2023-04-30T10:49:01;99856.88;;;30.51;21.85
70730;BME280;58315;53.336;55.932;2023-04-30T10:51:45;99842.72;;;30.55;21.62
70730;BME280;58315;53.336;55.932;2023-04-30T10:54:25;99840.78;;;30.50;21.75
70730;BME280;58315;53.336;55.932;2023-04-30T10:56:53;99845.22;;;30.66;22.06
70730;BME280;58315;53.336;55.932;2023-04-30T10:59:22;99832.78;;;30.76;21.50
70730;BME280;58315;53.336;55.932;2023-04-30T11:01:59;99853.09;;;30.58;21.42
70730;BME280;58315;53.336;55.932;2023-04-30T11:04:26;99838.94;;;30.61;21.57
70730;BME280;58315;53.336;55.932;2023-04-30T11:07:08;99835.41;;;30.65;21.59
70730;BME280;58315;53.336;55.932;2023-04-30T11:12:18;99822.03;;;30.64;21.78
70730;BME280;58315;53.336;55.932;2023-04-30T11:14:45;99814.66;;;30.59;21.56
70730;BME280;58315;53.336;55.932;2023-04-30T11:17:20;99832.91;;;30.54;21.67
70730;BME280;58315;53.336;55.932;2023-04-30T11:19:50;99822.16;;;30.42;21.59
70730;BME280;58315;53.336;55.932;2023-04-30T11:22:19;99831.53;;;30.56;21.84
70730;BME280;58315;53.336;55.932;2023-04-30T11:27:25;99811.84;;;30.49;21.66
70730;BME280;58315;53.336;55.932;2023-04-30T11:29:52;99813.81;;;30.59;21.55
70730;BME280;58315;53.336;55.932;2023-04-30T11:32:20;99816.56;;;30.59;21.44
70730;BME280;58315;53.336;55.932;2023-04-30T11:34:47;99812.22;;;30.63;21.84
70730;BME280;58315;53.336;55.932;2023-04-30T11:37:26;99817.50;;;30.80;21.81
70730;BME280;58315;53.336;55.932;2023-04-30T11:39:56;99803.78;;;30.69;21.83
70730;BME280;58315;53.336;55.932;2023-04-30T11:42:22;99811.97;;;30.69;21.67
70730;BME280;58315;53.336;55.932;2023-04-30T11:44:48;99811.69;;;30.66;21.84
70730;BME280;58315;53.336;55.932;2023-04-30T11:47:14;99809.25;;;30.69;21.63
70730;BME280;58315;53.336;55.932;2023-04-30T11:49:43;99804.13;;;30.78;21.71
70730;BME280;58315;53.336;55.932;2023-04-30T11:52:12;99796.00;;;30.88;21.59
70730;BME280;58315;53.336;55.932;2023-04-30T11:54:38;99802.50;;;30.77;21.59
70730;BME280;58315;53.336;55.932;2023-04-30T11:57:04;99805.56;;;30.91;21.32
70730;BME280;58315;53.336;55.932;2023-04-30T11:59:41;99798.19;;;30.96;21.74
70730;BME280;58315;53.336;55.932;2023-04-30T12:02:08;99805.28;;;30.92;21.76
70730;BME280;58315;53.336;55.932;2023-04-30T12:04:35;99799.81;;;30.87;21.30
70730;BME280;58315;53.336;55.932;2023-04-30T12:07:01;99794.59;;;30.86;21.78
70730;BME280;58315;53.336;55.932;2023-04-30T12:09:28;99799.47;;;30.79;21.59
70730;BME280;58315;53.336;55.932;2023-04-30T12:11:54;99799.47;;;30.79;21.67
70730;BME280;58315;53.336;55.932;2023-04-30T12:14:23;99795.66;;;30.74;21.75
70730;BME280;58315;53.336;55.932;2023-04-30T12:16:50;99794.03;;;30.79;21.27
70730;BME280;58315;53.336;55.932;2023-04-30T12:19:18;99798.88;;;30.66;21.59
70730;BME280;58315;53.336;55.932;2023-04-30T12:21:45;99792.97;;;30.85;21.45
70730;BME280;58315;53.336;55.932;2023-04-30T12:24:13;99787.03;;;30.98;21.47
70730;BME280;58315;53.336;55.932;2023-04-30T12:26:40;99788.94;;;30.97;21.12
70730;BME280;58315;53.336;55.932;2023-04-30T12:29:13;99791.66;;;30.97;21.34
70730;BME280;58315;53.336;55.932;2023-04-30T12:31:40;99788.53;;;30.73;21.47
70730;BME280;58315;53.336;55.932;2023-04-30T12:34:12;99782.00;;;30.74;21.58
70730;BME280;58315;53.336;55.932;2023-04-30T12:36:39;99789.88;;;30.71;21.69
70730;BME280;58315;53.336;55.932;2023-04-30T12:39:10;99792.59;;;30.71;21.69
70730;BME280;58315;53.336;55.932;2023-04-30T12:41:44;99785.81;;;30.68;21.21
70730;BME280;58315;53.336;55.932;2023-04-30T12:44:21;99792.00;;;30.59;21.60
70730;BME280;58315;53.336;55.932;2023-04-30T12:46:49;99790.00;;;30.39;21.58
70730;BME280;58315;53.336;55.932;2023-04-30T12:49:26;99785.91;;;30.41;21.55
70730;BME280;58315;53.336;55.932;2023-04-30T12:51:58;99790.09;;;30.54;21.90
70730;BME280;58315;53.336;55.932;2023-04-30T12:54:26;99784.88;;;30.47;21.89
70730;BME280;58315;53.336;55.932;2023-04-30T12:57:11;99789.22;;;30.48;21.70
70730;BME280;58315;53.336;55.932;2023-04-30T12:59:54;99782.09;;;30.37;22.17
70730;BME280;58315;53.336;55.932;2023-04-30T13:02:25;99790.53;;;30.36;22.38
70730;BME280;58315;53.336;55.932;2023-04-30T13:04:52;99782.31;;;30.31;21.86
70730;BME280;58315;53.336;55.932;2023-04-30T13:07:19;99780.97;;;30.33;21.81
70730;BME280;58315;53.336;55.932;2023-04-30T13:09:46;99776.94;;;30.41;22.12
70730;BME280;58315;53.336;55.932;2023-04-30T13:12:12;99776.63;;;30.37;22.60
70730;BME280;58315;53.336;55.932;2023-04-30T13:14:38;99776.09;;;30.40;22.29